Time;durP1;ratioP1;P1;durP2;ratioP2;P2;SDS_P1;SDS_P2;PMS_P1;PMS_P2;Temp;Humidity;BMP_temperature;BMP_pressure;BME280_temperature;BME280_humidity;BME280_pressure;Samples;Min_cycle;Max_cycle;Signal;HPM_P1;HPM_P2
2024/04/14 00:01:51;;;;;;;5.75;3.58;;;14.90;99.90;;;;;;5480198;26;20055;-71
2024/04/14 00:04:17;;;;;;;4.70;3.03;;;14.80;99.90;;;;;;5471950;26;20006;-71
2024/04/14 00:06:42;;;;;;;4.07;2.60;;;14.90;99.90;;;;;;5465488;26;20006;-71
2024/04/14 00:09:08;;;;;;;4.05;2.47;;;14.90;99.90;;;;;;5482220;26;20010;-71
2024/04/14 00:11:34;;;;;;;6.78;2.95;;;14.90;99.90;;;;;;5461376;26;20006;-71
2024/04/14 00:13:59;;;;;;;3.30;2.70;;;14.90;99.90;;;;;;5473980;26;20007;-71
2024/04/14 00:16:25;;;;;;;5.65;2.47;;;14.90;99.90;;;;;;5472895;26;20013;-71
2024/04/14 00:18:51;;;;;;;3.50;3.03;;;15.00;99.90;;;;;;5468589;26;20003;-71
2024/04/14 00:21:18;;;;;;;4.45;2.58;;;15.00;99.90;;;;;;5472544;26;20392;-71
2024/04/14 00:23:43;;;;;;;3.47;2.00;;;15.00;99.90;;;;;;5472840;26;20012;-71
2024/04/14 00:26:10;;;;;;;5.68;2.45;;;15.00;99.90;;;;;;5477517;26;19998;-71
2024/04/14 00:28:36;;;;;;;7.07;2.20;;;15.10;99.90;;;;;;5465394;26;19999;-71
2024/04/14 00:31:01;;;;;;;3.08;2.30;;;15.20;99.90;;;;;;5465054;26;20002;-71
2024/04/14 00:33:30;;;;;;;2.72;1.83;;;15.20;99.90;;;;;;5475510;26;20002;-71
2024/04/14 00:35:55;;;;;;;3.38;1.98;;;15.20;99.90;;;;;;5478613;26;20013;-71
2024/04/14 00:38:21;;;;;;;2.53;1.70;;;15.20;99.90;;;;;;5455872;26;20031;-71
2024/04/14 00:40:47;;;;;;;2.17;1.67;;;15.20;99.90;;;;;;5467451;26;20692;-71
2024/04/14 00:43:16;;;;;;;4.82;2.40;;;15.10;99.90;;;;;;5471767;26;20510;-71
2024/04/14 00:45:44;;;;;;;4.50;3.22;;;15.00;99.90;;;;;;5457879;26;20005;-71
2024/04/14 00:48:09;;;;;;;4.95;3.60;;;14.90;99.90;;;;;;5477611;26;19999;-71
2024/04/14 00:50:35;;;;;;;5.22;3.45;;;14.80;99.90;;;;;;5469819;26;20335;-71
2024/04/14 00:53:01;;;;;;;5.53;3.67;;;14.70;99.90;;;;;;5482808;26;19998;-71
2024/04/14 00:55:28;;;;;;;4.05;3.22;;;14.60;99.90;;;;;;5463645;26;20030;-71
2024/04/14 00:57:54;;;;;;;4.82;3.10;;;14.50;99.90;;;;;;5470505;26;20008;-71
2024/04/14 01:00:21;;;;;;;3.33;2.67;;;14.40;99.90;;;;;;5474323;26;20435;-71
2024/04/14 01:02:50;;;;;;;3.28;2.88;;;14.30;99.90;;;;;;5472725;26;20010;-71
2024/04/14 01:05:17;;;;;;;6.30;3.10;;;14.20;99.90;;;;;;5468151;26;20010;-71
2024/04/14 01:07:42;;;;;;;6.05;2.90;;;14.10;99.90;;;;;;5473900;26;20011;-71
2024/04/14 01:10:08;;;;;;;4.80;2.50;;;14.10;99.90;;;;;;5474986;26;19999;-71
2024/04/14 01:12:34;;;;;;;5.50;2.45;;;14.00;99.90;;;;;;5466062;26;20078;-71
2024/04/14 01:15:01;;;;;;;3.65;2.40;;;;;;;;;;5471448;26;20002;-71
2024/04/14 01:17:27;;;;;;;2.85;2.53;;;;;;;;;;5478011;26;20002;-71
2024/04/14 01:19:53;;;;;;;5.13;3.20;;;;;;;;;;5461092;26;20074;-71
2024/04/14 01:22:19;;;;;;;7.30;3.00;;;;;;;;;;5474932;26;19994;-71
2024/04/14 01:24:45;;;;;;;4.07;3.20;;;13.70;99.90;;;;;;5466643;26;19998;-71
2024/04/14 01:27:10;;;;;;;5.30;3.05;;;13.60;99.90;;;;;;5486408;26;19997;-71
2024/04/14 01:29:36;;;;;;;3.80;2.90;;;13.50;99.90;;;;;;5466421;26;20002;-71
2024/04/14 01:32:02;;;;;;;8.75;3.60;;;13.50;99.90;;;;;;5471622;26;20063;-71
2024/04/14 01:34:27;;;;;;;5.45;3.30;;;13.40;99.90;;;;;;5479106;26;20447;-71
2024/04/14 01:36:53;;;;;;;6.20;3.60;;;13.40;99.90;;;;;;5469774;26;20002;-71
2024/04/14 01:39:19;;;;;;;4.47;2.85;;;13.30;99.90;;;;;;5459751;26;20356;-71
2024/04/14 01:41:44;;;;;;;4.25;3.03;;;13.30;99.90;;;;;;5469781;26;20034;-71
2024/04/14 01:44:10;;;;;;;4.95;3.35;;;13.30;99.90;;;;;;5458270;26;19995;-71
2024/04/14 01:46:37;;;;;;;5.32;3.35;;;13.20;99.90;;;;;;5465227;26;20833;-71
2024/04/14 01:49:02;;;;;;;4.35;3.50;;;13.20;99.90;;;;;;5468818;26;19999;-71
2024/04/14 01:51:28;;;;;;;6.30;3.58;;;13.10;99.90;;;;;;5480854;26;20041;-71
2024/04/14 01:53:53;;;;;;;6.47;3.70;;;13.00;99.90;;;;;;5478730;26;19998;-71
2024/04/14 01:56:19;;;;;;;6.55;3.75;;;13.00;99.90;;;;;;5477587;26;20056;-70
2024/04/14 01:58:44;;;;;;;5.50;4.03;;;13.00;99.90;;;;;;5461090;26;19998;-70
2024/04/14 02:01:10;;;;;;;8.93;3.63;;;12.90;99.90;;;;;;5477772;26;20096;-70
2024/04/14 02:03:35;;;;;;;7.32;3.38;;;12.90;99.90;;;;;;5462528;26;20005;-70
2024/04/14 02:06:01;;;;;;;5.57;3.65;;;12.80;99.90;;;;;;5471647;26;20010;-69
2024/04/14 02:08:27;;;;;;;6.43;4.93;;;12.80;99.90;;;;;;5477340;26;20009;-71
2024/04/14 02:10:52;;;;;;;5.03;4.00;;;12.70;99.90;;;;;;5469557;26;19995;-70
2024/04/14 02:13:19;;;;;;;6.10;4.20;;;12.70;99.90;;;;;;5477206;26;20014;-70
2024/04/14 02:15:44;;;;;;;7.60;4.28;;;12.60;99.90;;;;;;5468792;26;20005;-70
2024/04/14 02:18:10;;;;;;;6.53;4.63;;;12.60;99.90;;;;;;5477127;26;20050;-70
2024/04/14 02:20:35;;;;;;;8.57;4.47;;;12.60;99.90;;;;;;5464086;26;20047;-70
2024/04/14 02:23:01;;;;;;;10.50;5.72;;;12.60;99.90;;;;;;5427123;26;20030;-70
2024/04/14 02:25:27;;;;;;;6.65;4.45;;;12.50;99.90;;;;;;5443637;26;19990;-70
2024/04/14 02:27:53;;;;;;;3.88;2.92;;;12.50;99.90;;;;;;5483374;26;20453;-72
2024/04/14 02:30:18;;;;;;;2.63;2.25;;;12.40;99.90;;;;;;5459799;26;19990;-73
2024/04/14 02:32:44;;;;;;;3.17;2.40;;;12.50;99.90;;;;;;5467089;26;20003;-72
2024/04/14 02:35:10;;;;;;;4.00;2.97;;;12.50;99.90;;;;;;5472241;26;19994;-70
2024/04/14 02:37:35;;;;;;;4.25;3.22;;;12.50;99.90;;;;;;5464869;26;19998;-70
2024/04/14 02:40:01;;;;;;;3.38;2.95;;;12.40;99.90;;;;;;5471385;26;20004;-70
2024/04/14 02:42:34;;;;;;;5.43;3.53;;;12.50;99.90;;;;;;5476621;26;20446;-70
2024/04/14 02:44:59;;;;;;;4.70;3.15;;;12.40;99.90;;;;;;5452352;26;20002;-70
2024/04/14 02:47:25;;;;;;;6.20;3.30;;;12.40;99.90;;;;;;5477632;26;20025;-70
2024/04/14 02:49:50;;;;;;;5.53;3.75;;;12.40;99.90;;;;;;5473245;26;20078;-70
2024/04/14 02:52:16;;;;;;;7.95;4.97;;;12.40;99.90;;;;;;5474177;26;20422;-70
2024/04/14 02:54:42;;;;;;;6.93;4.38;;;12.30;99.90;;;;;;5458903;26;20013;-70
2024/04/14 02:57:07;;;;;;;5.25;3.70;;;12.30;99.90;;;;;;5463343;26;19995;-69
2024/04/14 02:59:36;;;;;;;5.45;4.30;;;12.30;99.90;;;;;;5477361;26;19998;-73
2024/04/14 03:02:01;;;;;;;9.73;4.95;;;12.30;99.90;;;;;;5483800;26;19998;-72
2024/04/14 03:04:27;;;;;;;7.32;4.47;;;12.20;99.90;;;;;;5474757;26;20451;-73
2024/04/14 03:06:53;;;;;;;9.35;4.50;;;12.20;99.90;;;;;;5470997;26;20014;-72
2024/04/14 03:09:19;;;;;;;6.60;4.30;;;12.20;99.90;;;;;;5482579;26;20046;-72
2024/04/14 03:11:44;;;;;;;8.07;4.72;;;12.20;99.90;;;;;;5463055;26;19998;-72
2024/04/14 03:14:10;;;;;;;4.63;3.80;;;12.20;99.90;;;;;;5465541;26;20010;-71
2024/04/14 03:16:36;;;;;;;6.65;4.25;;;12.20;99.90;;;;;;5475280;26;20005;-71
2024/04/14 03:19:02;;;;;;;4.32;3.17;;;12.20;99.90;;;;;;5485546;26;20010;-70
2024/04/14 03:21:27;;;;;;;7.65;3.78;;;12.20;99.90;;;;;;5434429;26;20525;-71
2024/04/14 03:23:53;;;;;;;5.03;3.78;;;12.30;99.90;;;;;;5455879;26;19999;-71
2024/04/14 03:26:19;;;;;;;5.45;3.53;;;12.20;99.90;;;;;;5483002;26;19994;-71
2024/04/14 03:28:44;;;;;;;5.72;3.60;;;12.30;99.90;;;;;;5469844;26;20015;-71
2024/04/14 03:31:10;;;;;;;4.30;3.40;;;12.30;99.90;;;;;;5479165;26;20432;-70
2024/04/14 03:33:35;;;;;;;10.10;3.13;;;12.30;99.90;;;;;;5456879;26;20336;-71
2024/04/14 03:36:03;;;;;;;4.55;3.13;;;12.20;99.90;;;;;;5479694;26;20002;-70
2024/04/14 03:38:29;;;;;;;4.70;3.67;;;12.20;99.90;;;;;;5454820;26;20465;-70
2024/04/14 03:40:55;;;;;;;4.07;3.10;;;12.20;99.90;;;;;;5467803;26;20023;-70
2024/04/14 03:43:21;;;;;;;6.78;3.28;;;12.20;99.90;;;;;;5472537;26;20324;-70
2024/04/14 03:45:46;;;;;;;3.97;3.20;;;12.10;99.90;;;;;;5463129;26;19998;-70
2024/04/14 03:48:12;;;;;;;6.22;3.30;;;12.10;99.90;;;;;;5470671;26;19991;-70
2024/04/14 03:50:38;;;;;;;5.25;3.17;;;12.10;99.90;;;;;;5469840;26;20013;-71
2024/04/14 03:53:04;;;;;;;4.80;3.33;;;12.10;99.90;;;;;;5482462;26;19998;-69
2024/04/14 03:55:31;;;;;;;5.70;3.25;;;12.10;99.90;;;;;;5463001;26;20010;-70
2024/04/14 03:57:57;;;;;;;5.90;3.65;;;12.00;99.90;;;;;;5466225;26;20002;-70
2024/04/14 04:00:23;;;;;;;7.18;4.22;;;12.00;99.90;;;;;;5473695;26;20033;-70
2024/04/14 04:02:48;;;;;;;10.65;3.90;;;12.00;99.90;;;;;;5468681;26;20340;-69
2024/04/14 04:05:14;;;;;;;6.20;4.05;;;12.00;99.90;;;;;;5460685;26;19994;-70
2024/04/14 04:07:40;;;;;;;4.65;3.45;;;12.00;99.90;;;;;;5474419;26;20049;-70
2024/04/14 04:10:06;;;;;;;5.50;4.00;;;12.00;99.90;;;;;;5475949;26;20063;-69
2024/04/14 04:12:31;;;;;;;5.45;3.50;;;12.00;99.90;;;;;;5466423;26;19994;-70
2024/04/14 04:14:57;;;;;;;5.20;3.47;;;12.00;99.90;;;;;;5466631;26;20343;-71
2024/04/14 04:17:23;;;;;;;8.52;4.15;;;12.00;99.90;;;;;;5483211;26;20070;-71
2024/04/14 04:19:48;;;;;;;5.57;3.92;;;12.00;99.90;;;;;;5459575;26;20703;-71
2024/04/14 04:22:14;;;;;;;9.25;3.72;;;12.00;99.90;;;;;;5473183;26;20006;-71
2024/04/14 04:24:40;;;;;;;7.78;5.25;;;11.90;99.90;;;;;;5461834;26;20086;-71
2024/04/14 04:27:05;;;;;;;9.88;5.97;;;11.90;99.90;;;;;;5483003;26;20319;-70
2024/04/14 04:29:31;;;;;;;8.35;5.72;;;11.90;99.90;;;;;;5463186;26;20013;-71
2024/04/14 04:31:57;;;;;;;8.02;4.95;;;11.90;99.90;;;;;;5466154;26;20020;-70
2024/04/14 04:34:23;;;;;;;6.30;4.22;;;11.90;99.90;;;;;;5459290;26;20031;-70
2024/04/14 04:36:50;;;;;;;8.68;4.68;;;11.90;99.90;;;;;;5468125;26;20002;-70
2024/04/14 04:39:16;;;;;;;6.20;4.10;;;11.90;99.90;;;;;;5462818;26;20025;-70
2024/04/14 04:41:41;;;;;;;5.95;4.07;;;11.90;99.90;;;;;;5473082;26;20812;-70
2024/04/14 04:44:07;;;;;;;6.43;4.00;;;11.90;99.90;;;;;;5454959;26;20087;-70
2024/04/14 04:46:33;;;;;;;6.00;3.35;;;11.90;99.90;;;;;;5468705;26;19998;-71
2024/04/14 04:48:59;;;;;;;4.07;3.30;;;11.90;99.90;;;;;;5471510;26;19994;-71
2024/04/14 04:51:28;;;;;;;5.35;3.97;;;11.80;99.90;;;;;;5476874;26;20069;-71
2024/04/14 04:53:53;;;;;;;5.18;3.22;;;11.90;99.90;;;;;;5485999;26;19994;-70
2024/04/14 04:56:19;;;;;;;4.70;3.08;;;11.90;99.90;;;;;;5478453;26;20451;-71
2024/04/14 04:58:45;;;;;;;4.90;3.50;;;11.90;99.90;;;;;;5474940;26;20002;-69
2024/04/14 05:01:11;;;;;;;4.22;3.22;;;11.90;99.90;;;;;;5486040;26;20009;-72
2024/04/14 05:03:37;;;;;;;4.70;3.45;;;11.90;99.90;;;;;;5474072;26;19994;-73
2024/04/14 05:06:04;;;;;;;4.50;3.33;;;12.00;99.90;;;;;;5464487;26;20082;-72
2024/04/14 05:08:31;;;;;;;5.28;3.45;;;12.00;99.90;;;;;;5481455;26;20073;-73
2024/04/14 05:10:58;;;;;;;5.40;3.17;;;12.00;99.90;;;;;;5471749;26;20009;-72
2024/04/14 05:13:24;;;;;;;3.97;2.75;;;12.10;99.90;;;;;;5471611;26;20011;-73
2024/04/14 05:15:50;;;;;;;5.05;3.00;;;12.10;99.90;;;;;;5471641;26;20078;-72
2024/04/14 05:18:17;;;;;;;6.07;3.33;;;12.20;99.90;;;;;;5476242;26;20436;-72
2024/04/14 05:20:43;;;;;;;4.72;2.92;;;12.20;99.90;;;;;;5488637;26;20002;-74
2024/04/14 05:23:09;;;;;;;4.60;2.80;;;12.30;99.90;;;;;;5485387;26;20439;-73
2024/04/14 05:25:36;;;;;;;3.75;2.67;;;12.40;99.90;;;;;;5480799;26;20078;-72
2024/04/14 05:28:01;;;;;;;5.30;3.50;;;12.50;99.90;;;;;;5496991;26;19998;-72
2024/04/14 05:30:27;;;;;;;8.73;4.45;;;12.70;99.90;;;;;;5495441;26;19998;-73
2024/04/14 05:32:53;;;;;;;6.22;4.78;;;12.90;99.90;;;;;;5484851;26;20002;-71
2024/04/14 05:35:19;;;;;;;7.45;4.20;;;13.00;99.90;;;;;;5476397;26;19994;-74
2024/04/14 05:37:44;;;;;;;6.85;4.20;;;13.10;99.90;;;;;;5481380;26;19998;-72
2024/04/14 05:40:10;;;;;;;5.65;4.47;;;13.20;99.90;;;;;;5465960;26;20338;-73
2024/04/14 05:42:36;;;;;;;4.55;3.83;;;13.30;99.90;;;;;;5472717;26;19998;-73
2024/04/14 05:45:01;;;;;;;5.05;3.72;;;13.40;99.90;;;;;;5458871;26;20092;-72
2024/04/14 05:47:27;;;;;;;4.78;3.22;;;13.50;99.90;;;;;;5479449;26;20017;-72
2024/04/14 05:49:53;;;;;;;5.38;4.15;;;13.70;99.90;;;;;;5471306;26;19994;-73
2024/04/14 05:52:19;;;;;;;9.32;5.07;;;13.80;99.90;;;;;;5483799;26;20002;-73
2024/04/14 05:54:45;;;;;;;6.38;4.30;;;13.90;99.90;;;;;;5472773;26;20022;-72
2024/04/14 05:57:11;;;;;;;4.90;3.60;;;14.00;99.90;;;;;;5486523;26;20013;-72
2024/04/14 05:59:36;;;;;;;5.40;3.53;;;14.10;99.90;;;;;;5469666;26;20359;-72
2024/04/14 06:02:03;;;;;;;4.18;3.08;;;14.30;99.90;;;;;;5464916;26;19998;-73
2024/04/14 06:04:29;;;;;;;4.53;3.20;;;14.40;99.90;;;;;;5474230;26;20003;-72
2024/04/14 06:06:55;;;;;;;4.93;3.35;;;14.40;99.90;;;;;;5481913;26;20067;-72
2024/04/14 06:09:23;;;;;;;3.22;2.80;;;14.60;99.90;;;;;;5475438;26;20006;-72
2024/04/14 06:11:49;;;;;;;7.15;3.30;;;14.60;99.90;;;;;;5482004;26;19998;-72
2024/04/14 06:14:15;;;;;;;6.55;3.85;;;14.70;99.90;;;;;;5467038;26;20020;-72
2024/04/14 06:16:40;;;;;;;7.30;4.35;;;14.80;99.90;;;;;;5478348;26;20002;-71
2024/04/14 06:19:06;;;;;;;3.97;3.38;;;15.00;99.90;;;;;;5464592;26;19990;-73
2024/04/14 06:21:31;;;;;;;4.32;2.65;;;15.10;99.90;;;;;;5479090;26;19998;-73
2024/04/14 06:23:57;;;;;;;5.20;3.22;;;15.10;99.90;;;;;;5465400;26;20033;-72
2024/04/14 06:26:23;;;;;;;4.28;3.30;;;15.30;99.90;;;;;;5466565;26;19991;-73
2024/04/14 06:28:48;;;;;;;6.97;4.22;;;15.40;99.90;;;;;;5477753;26;20438;-72
2024/04/14 06:31:14;;;;;;;3.65;3.30;;;15.60;99.90;;;;;;5471808;26;20005;-73
2024/04/14 06:33:39;;;;;;;7.32;4.13;;;15.70;99.90;;;;;;5481176;26;19998;-72
2024/04/14 06:36:06;;;;;;;7.00;5.45;;;15.80;99.90;;;;;;5465907;26;19995;-72
2024/04/14 06:38:31;;;;;;;7.50;5.28;;;15.90;99.90;;;;;;5474391;26;20014;-72
2024/04/14 06:40:57;;;;;;;7.55;4.50;;;16.00;99.90;;;;;;5484657;26;19994;-74
2024/04/14 06:43:23;;;;;;;5.43;4.07;;;16.10;99.90;;;;;;5480566;26;19998;-73
2024/04/14 06:45:53;;;;;;;4.82;3.50;;;16.20;99.90;;;;;;5474722;26;20002;-73
2024/04/14 06:48:19;;;;;;;4.63;3.17;;;16.40;99.90;;;;;;5481108;26;20078;-74
2024/04/14 06:50:45;;;;;;;4.97;3.47;;;16.50;99.90;;;;;;5474361;26;19999;-74
2024/04/14 06:53:12;;;;;;;5.82;3.10;;;16.80;99.90;;;;;;5484881;26;20346;-73
2024/04/14 06:55:37;;;;;;;8.38;4.78;;;17.00;99.90;;;;;;5435411;26;20005;-72
2024/04/14 06:58:03;;;;;;;7.57;4.75;;;17.40;99.90;;;;;;5479212;26;20005;-77
2024/04/14 07:00:28;;;;;;;6.63;4.45;;;17.70;99.90;;;;;;5480239;26;20385;-78
2024/04/14 07:02:54;;;;;;;5.75;3.60;;;17.90;99.90;;;;;;5471676;26;19995;-70
2024/04/14 07:05:20;;;;;;;6.03;3.88;;;18.00;99.90;;;;;;5458914;26;20372;-74
2024/04/14 07:07:46;;;;;;;5.68;4.45;;;18.00;99.90;;;;;;5473124;26;19998;-71
2024/04/14 07:10:12;;;;;;;5.65;3.60;;;18.00;99.90;;;;;;5478707;26;19995;-75
2024/04/14 07:12:37;;;;;;;5.70;4.75;;;18.00;99.90;;;;;;5479090;26;20013;-76
2024/04/14 07:15:03;;;;;;;7.65;4.32;;;18.00;99.90;;;;;;5461942;26;20326;-80
2024/04/14 07:17:29;;;;;;;5.63;4.10;;;18.00;99.90;;;;;;5466131;26;20002;-83
2024/04/14 07:19:54;;;;;;;7.10;4.05;;;18.00;99.90;;;;;;5445700;26;19995;-88
2024/04/14 07:22:20;;;;;;;4.93;3.80;;;18.10;99.90;;;;;;5475045;26;19998;-84
2024/04/14 07:24:45;;;;;;;6.10;4.35;;;18.20;99.90;;;;;;5441017;26;20009;-76
2024/04/14 07:27:11;;;;;;;6.45;4.55;;;18.30;99.90;;;;;;5471341;26;20027;-83
2024/04/14 07:29:37;;;;;;;5.63;3.25;;;18.40;99.90;;;;;;5467563;26;20678;-78
2024/04/14 07:32:03;;;;;;;5.05;3.38;;;18.50;99.90;;;;;;5473527;26;20013;-84
2024/04/14 07:34:28;;;;;;;4.57;3.33;;;18.70;99.90;;;;;;5474456;26;20013;-80
2024/04/14 07:36:56;;;;;;;4.43;2.80;;;18.80;99.90;;;;;;5484298;26;20335;-83
2024/04/14 07:39:21;;;;;;;4.82;2.80;;;19.00;99.90;;;;;;5469635;26;19999;-81
2024/04/14 07:41:47;;;;;;;5.25;2.97;;;19.20;99.90;;;;;;5480739;26;20051;-81
2024/04/14 07:44:13;;;;;;;5.60;3.05;;;19.40;99.90;;;;;;5433767;26;20624;-81
2024/04/14 07:46:39;;;;;;;4.07;2.85;;;19.60;99.90;;;;;;5464493;26;20006;-79
2024/04/14 07:49:05;;;;;;;5.78;3.45;;;19.80;99.90;;;;;;5442730;26;20645;-79
2024/04/14 07:51:30;;;;;;;4.95;3.30;;;20.00;99.90;;;;;;5482401;26;20002;-73
2024/04/14 07:53:56;;;;;;;5.85;3.58;;;20.10;99.90;;;;;;5478992;26;20347;-73
2024/04/14 07:56:21;;;;;;;6.18;3.50;;;20.30;99.90;;;;;;5474324;26;20009;-72
2024/04/14 07:58:48;;;;;;;5.38;3.90;;;20.50;99.90;;;;;;5484967;26;20002;-73
2024/04/14 08:01:14;;;;;;;5.05;3.53;;;20.60;99.90;;;;;;5481528;26;20013;-76
2024/04/14 08:03:40;;;;;;;5.43;3.40;;;20.70;99.90;;;;;;5465778;26;19995;-74
2024/04/14 08:06:06;;;;;;;8.13;3.95;;;20.70;99.90;;;;;;5464375;26;20456;-76
2024/04/14 08:08:31;;;;;;;7.38;3.75;;;20.80;99.90;;;;;;5441080;26;20008;-73
2024/04/14 08:10:57;;;;;;;3.20;2.90;;;20.90;99.90;;;;;;5482467;26;20058;-73
2024/04/14 08:13:22;;;;;;;5.50;2.65;;;21.00;99.80;;;;;;5474627;26;20009;-75
2024/04/14 08:15:48;;;;;;;4.57;2.90;;;21.10;99.00;;;;;;5473693;26;20419;-79
2024/04/14 08:18:16;;;;;;;6.35;2.88;;;21.10;99.90;;;;;;5478259;26;19994;-76
2024/04/14 08:20:41;;;;;;;4.45;2.83;;;21.30;98.60;;;;;;5476434;26;19998;-75
2024/04/14 08:23:07;;;;;;;4.53;2.72;;;21.40;98.20;;;;;;5462551;26;20010;-75
2024/04/14 08:25:39;;;;;;;3.05;2.33;;;21.30;98.30;;;;;;5468553;26;20002;-78
2024/04/14 08:28:04;;;;;;;4.45;2.90;;;21.40;98.00;;;;;;5469457;26;20503;-75
2024/04/14 08:30:30;;;;;;;3.67;2.30;;;21.50;98.00;;;;;;5468460;26;20006;-78
2024/04/14 08:32:55;;;;;;;4.32;2.08;;;21.60;97.80;;;;;;5470896;26;20445;-79
2024/04/14 08:35:21;;;;;;;2.95;1.90;;;21.70;97.10;;;;;;5465410;26;20007;-83
2024/04/14 08:37:47;;;;;;;3.10;2.08;;;21.80;98.00;;;;;;5438500;26;20010;-81
2024/04/14 08:40:12;;;;;;;5.30;2.65;;;21.90;97.10;;;;;;5475089;26;20031;-81
2024/04/14 08:42:38;;;;;;;3.50;2.40;;;22.00;97.00;;;;;;5471286;26;19994;-79
2024/04/14 08:45:06;;;;;;;3.58;2.13;;;22.10;96.50;;;;;;5461193;26;20078;-74
2024/04/14 08:47:33;;;;;;;3.42;2.40;;;22.10;96.40;;;;;;5476658;26;20010;-75
2024/04/14 08:50:03;;;;;;;2.90;2.50;;;22.20;96.10;;;;;;5486829;26;20014;-76
2024/04/14 08:52:30;;;;;;;5.18;2.20;;;22.30;96.20;;;;;;5473140;26;20339;-78
2024/04/14 08:54:56;;;;;;;3.25;2.13;;;22.40;96.40;;;;;;5486473;26;19994;-78
2024/04/14 08:57:26;;;;;;;3.25;2.20;;;22.50;95.60;;;;;;5485764;26;20005;-78
2024/04/14 08:59:54;;;;;;;;;;;22.60;95.50;;;;;;5465803;26;20030;-78
2024/04/14 09:02:19;;;;;;;4.70;2.60;;;22.80;94.90;;;;;;5486709;26;19924;-78
2024/04/14 09:04:47;;;;;;;4.70;2.20;;;22.90;95.20;;;;;;5439590;26;20014;-78
2024/04/14 09:07:12;;;;;;;5.30;2.90;;;22.90;95.40;;;;;;5478298;26;20002;-78
2024/04/14 09:09:38;;;;;;;4.03;2.30;;;23.00;95.50;;;;;;5481729;26;20074;-78
2024/04/14 09:12:09;;;;;;;5.60;1.95;;;23.00;94.60;;;;;;5462968;26;20005;-78
2024/04/14 09:14:35;;;;;;;2.92;2.03;;;23.10;94.30;;;;;;5437170;26;20331;-78
2024/04/14 09:17:02;;;;;;;3.15;2.03;;;23.30;94.60;;;;;;5477960;26;20002;-77
2024/04/14 09:19:27;;;;;;;3.80;1.80;;;23.30;94.10;;;;;;5478052;26;19990;-78
2024/04/14 09:21:53;;;;;;;3.85;1.98;;;23.40;93.90;;;;;;5482066;26;19998;-78
2024/04/14 09:24:19;;;;;;;5.28;2.55;;;23.50;94.40;;;;;;5463512;26;19999;-78
2024/04/14 09:26:45;;;;;;;4.25;1.98;;;23.50;94.00;;;;;;5469816;26;20002;-78
2024/04/14 09:29:10;;;;;;;2.92;2.03;;;23.70;94.60;;;;;;5438145;26;20401;-78
2024/04/14 09:31:36;;;;;;;2.05;1.83;;;23.70;94.10;;;;;;5458109;26;20003;-78
2024/04/14 09:34:05;;;;;;;3.85;2.22;;;23.90;93.90;;;;;;5480769;26;20412;-79
2024/04/14 09:36:30;;;;;;;3.88;1.80;;;24.00;94.00;;;;;;5474224;26;20407;-76
2024/04/14 09:38:57;;;;;;;4.97;2.10;;;24.00;93.60;;;;;;5456402;26;20133;-76
2024/04/14 09:41:23;;;;;;;5.13;2.47;;;23.90;93.90;;;;;;5483182;26;20013;-75
2024/04/14 09:43:53;;;;;;;3.88;1.88;;;24.00;94.00;;;;;;5464514;26;20076;-79
2024/04/14 09:46:21;;;;;;;2.78;1.92;;;24.00;94.20;;;;;;5445922;26;20009;-84
2024/04/14 09:48:49;;;;;;;2.42;1.98;;;24.00;93.90;;;;;;5463113;26;20513;-75
2024/04/14 09:51:15;;;;;;;6.28;2.28;;;24.10;94.20;;;;;;5476155;26;20002;-75
2024/04/14 09:53:41;;;;;;;5.47;2.30;;;24.10;94.30;;;;;;5481017;26;20330;-81
2024/04/14 09:56:07;;;;;;;4.25;2.40;;;24.20;94.50;;;;;;5479652;26;20010;-81
2024/04/14 09:58:33;;;;;;;5.47;2.20;;;24.20;94.30;;;;;;5482417;26;20002;-81
2024/04/14 10:01:02;;;;;;;5.15;1.90;;;24.20;94.50;;;;;;5453731;26;20459;-82
2024/04/14 10:03:30;;;;;;;3.42;1.88;;;24.20;94.50;;;;;;5476453;26;20330;-79
2024/04/14 10:05:58;;;;;;;4.28;2.22;;;24.40;94.60;;;;;;5465937;26;19998;-79
2024/04/14 10:08:24;;;;;;;3.95;2.20;;;24.50;94.50;;;;;;5472621;26;20030;-82
2024/04/14 10:10:53;;;;;;;8.25;2.83;;;24.70;94.40;;;;;;5485355;26;19998;-80
2024/04/14 10:13:19;;;;;;;6.57;1.98;;;24.70;94.50;;;;;;5470160;26;20007;-81
2024/04/14 10:15:55;;;;;;;5.43;2.33;;;24.80;95.40;;;;;;5470768;26;20499;-80
2024/04/14 10:18:21;;;;;;;3.10;2.33;;;25.10;94.60;;;;;;5481944;26;20002;-75
2024/04/14 10:20:47;;;;;;;4.65;1.90;;;25.00;94.60;;;;;;5481887;26;20412;-77
2024/04/14 10:23:17;;;;;;;4.22;2.25;;;24.90;94.20;;;;;;5470671;26;20009;-74
2024/04/14 10:25:50;;;;;;;;;;;24.70;95.10;;;;;;5482314;26;19998;-75
2024/04/14 10:28:19;;;;;;;5.00;2.25;;;24.60;95.20;;;;;;5474524;26;19952;-75
2024/04/14 10:30:45;;;;;;;3.42;2.03;;;24.70;94.90;;;;;;5456714;26;20017;-76
2024/04/14 10:33:24;;;;;;;5.43;2.20;;;24.80;95.00;;;;;;5483122;26;19995;-75
2024/04/14 10:36:03;;;;;;;3.38;2.20;;;24.90;95.20;;;;;;5479309;26;19994;-75
2024/04/14 10:38:31;;;;;;;4.28;1.90;;;25.00;94.70;;;;;;5464735;26;20023;-75
2024/04/14 10:40:58;;;;;;;3.55;2.10;;;25.00;94.70;;;;;;5482465;26;20074;-73
2024/04/14 10:43:24;;;;;;;2.97;1.98;;;25.20;94.60;;;;;;5469007;26;20038;-72
2024/04/14 10:45:50;;;;;;;3.40;2.20;;;25.30;94.70;;;;;;5443829;26;20456;-75
2024/04/14 10:48:16;;;;;;;3.92;2.00;;;25.10;94.20;;;;;;5478949;26;20002;-75
2024/04/14 10:50:45;;;;;;;3.35;2.05;;;25.00;94.40;;;;;;5481976;26;20453;-73
2024/04/14 10:53:10;;;;;;;4.30;2.58;;;25.10;94.80;;;;;;5480864;26;20006;-75
2024/04/14 10:55:36;;;;;;;3.47;2.35;;;25.10;94.60;;;;;;5479845;26;19994;-75
2024/04/14 10:58:02;;;;;;;3.83;2.15;;;25.20;94.60;;;;;;5461049;26;19999;-73
2024/04/14 11:00:28;;;;;;;4.60;2.30;;;25.30;94.50;;;;;;5462362;26;19994;-74
2024/04/14 11:02:54;;;;;;;4.85;2.30;;;25.30;94.10;;;;;;5482513;26;20014;-74
2024/04/14 11:05:21;;;;;;;4.20;1.90;;;25.40;94.50;;;;;;5470738;26;20008;-74
2024/04/14 11:07:47;;;;;;;4.90;2.17;;;25.60;94.30;;;;;;5482235;26;20013;-73
2024/04/14 11:10:14;;;;;;;3.55;2.20;;;25.70;93.90;;;;;;5475399;26;19998;-73
2024/04/14 11:12:42;;;;;;;3.10;2.10;;;25.70;94.50;;;;;;5477403;26;20066;-70
2024/04/14 11:15:09;;;;;;;3.13;2.15;;;25.50;93.50;;;;;;5461670;26;19998;-71
2024/04/14 11:17:35;;;;;;;2.83;2.05;;;25.40;94.00;;;;;;5480480;26;20389;-72
2024/04/14 11:20:01;;;;;;;5.20;2.15;;;25.50;94.10;;;;;;5443569;26;19999;-72
2024/04/14 11:22:26;;;;;;;4.55;2.20;;;25.60;93.50;;;;;;5471475;26;20047;-71
2024/04/14 11:24:52;;;;;;;5.60;2.40;;;25.40;93.60;;;;;;5483807;26;20088;-72
2024/04/14 11:27:18;;;;;;;2.80;2.00;;;25.20;93.90;;;;;;5476194;26;19994;-71
2024/04/14 11:29:44;;;;;;;2.47;2.10;;;25.20;93.70;;;;;;5477640;26;20486;-73
2024/04/14 11:34:58;;;;;;;4.22;2.25;;;25.00;94.00;;;;;;5469533;26;20008;-68
2024/04/14 11:37:23;;;;;;;3.80;2.10;;;25.10;94.20;;;;;;5469102;26;19998;-69
2024/04/14 11:39:50;;;;;;;4.20;1.92;;;25.10;93.90;;;;;;5467344;26;20321;-70
2024/04/14 11:42:17;;;;;;;8.82;2.05;;;25.00;93.40;;;;;;5474600;26;19994;-70
2024/04/14 11:44:43;;;;;;;4.90;1.90;;;25.10;94.00;;;;;;5461705;26;20408;-69
2024/04/14 11:47:09;;;;;;;5.72;2.15;;;25.20;93.80;;;;;;5471516;26;20006;-67
2024/04/14 11:49:34;;;;;;;5.05;2.63;;;25.20;93.60;;;;;;5469269;26;20013;-69
2024/04/14 11:52:00;;;;;;;4.32;2.20;;;25.20;93.60;;;;;;5476387;26;20033;-69
2024/04/14 11:54:26;;;;;;;4.93;2.45;;;25.30;93.40;;;;;;5476074;26;20009;-74
2024/04/14 11:56:54;;;;;;;4.32;2.55;;;25.50;93.30;;;;;;5465297;26;20424;-73
2024/04/14 11:59:20;;;;;;;4.03;2.30;;;25.50;93.10;;;;;;5473007;26;20405;-75
2024/04/14 12:01:46;;;;;;;5.50;2.42;;;25.60;93.00;;;;;;5476696;26;20052;-71
2024/04/14 12:04:11;;;;;;;3.63;1.83;;;25.60;92.80;;;;;;5469763;26;20011;-72
2024/04/14 12:06:37;;;;;;;7.10;2.00;;;25.70;92.90;;;;;;5475959;26;20055;-74
2024/04/14 12:09:03;;;;;;;3.92;2.05;;;25.80;93.00;;;;;;5480850;26;20002;-74
2024/04/14 12:11:29;;;;;;;2.40;1.90;;;25.90;92.80;;;;;;5470102;26;20007;-80
2024/04/14 12:13:55;;;;;;;4.15;1.80;;;26.00;92.30;;;;;;5441728;26;20009;-76
2024/04/14 12:16:20;;;;;;;3.45;1.98;;;25.90;92.30;;;;;;5468975;26;20002;-77
2024/04/14 12:18:46;;;;;;;4.68;1.90;;;26.00;92.50;;;;;;5457426;26;20455;-79
2024/04/14 12:21:12;;;;;;;3.95;2.40;;;26.10;92.10;;;;;;5468149;26;19990;-76
2024/04/14 12:23:37;;;;;;;5.63;1.80;;;26.40;91.90;;;;;;5478661;26;20038;-76
2024/04/14 12:26:03;;;;;;;6.43;2.50;;;26.50;92.10;;;;;;5482531;26;20135;-76
2024/04/14 12:28:28;;;;;;;3.50;2.10;;;26.60;92.00;;;;;;5475346;26;20030;-75
2024/04/14 12:30:54;;;;;;;4.32;2.33;;;26.60;91.50;;;;;;5469517;26;20440;-74
2024/04/14 12:33:19;;;;;;;4.03;2.28;;;26.60;92.20;;;;;;5468187;26;20030;-77
2024/04/14 12:35:45;;;;;;;7.45;2.40;;;26.70;91.30;;;;;;5466969;26;20010;-75
2024/04/14 12:38:11;;;;;;;4.10;2.30;;;26.70;91.40;;;;;;5469622;26;20715;-75
2024/04/14 12:40:37;;;;;;;4.05;2.17;;;26.80;91.50;;;;;;5461376;26;20152;-76
2024/04/14 12:43:02;;;;;;;3.50;1.80;;;26.90;90.90;;;;;;5461167;26;19995;-74
2024/04/14 12:45:28;;;;;;;4.28;2.08;;;26.90;91.50;;;;;;5439200;26;20423;-73